Aérodrome :
LOGIN :

S'inscrire | Disclaimer

   EN    FR    IT 

 










Légende :    VFR   VFR Marginal   IFR   IFR Intensif   IFR Très Intensif
Visi : 
Plafond : 
>= 8 km
>= 3000ft
5 à 8 km
1000 à 3000 ft
1500m à 5 km
500 à 1000 ft
800 à 1500m
200 à 500 ft
< 800m
< 200 ft
Symboles :   Orages  Brouillard  Fortes neiges  Fortes précipitations  Vent > 20 kt
SIGMETs :   Divers  Orages  Givrage  Turbulence  Onde Orograph.  Cendres Volcan.






- Altitude de l'aérodrome : 12 ft
- Code IATA : BCN


LEBL - Barcelone

DERNIER METAR :
  • 181330Z 34005KT 9000 FEW015 22/20 Q1016 NOSIG

METARs EXPIRÉS :
  • 181300Z 35011KT 8000 FEW015 21/19 Q1017 NOSIG
  • 181230Z 33011KT 300V360 8000 -DZ FEW015 SCT040 21/19 Q1017 RESHRA NOSIG
  • 181216Z 32012KT 6000 -RA VCSH FEW015 FEW020TCU SCT040 20/19 Q1018 RESHRA NOSIG
  • 181200Z 35011KT 4500 SHRA FEW015 FEW020TCU BKN030 20/19 Q1017 NOSIG
  • 181130Z 33008KT 3500 SHRA SCT015 FEW020TCU BKN030 21/19 Q1018 NOSIG
  • 181114Z 28015KT 2000 +SHRA SCT015 SCT020TCU BKN030 21/19 Q1019 NOSIG

TAF AMD TAF LEBL
Valide du 18 à 13h jusqu'au 19 à 12h UTC


181327Z 1813/1912 35010KT 9999 FEW020 TX28/1912Z TN19/1906Z
PROB30
TEMPO 1813/1906 VRB15G30KT 2000 TSRA FEW020CB BKN025
PROB30
TEMPO 1901/1912 VRB15G30KT 2000 TSRA FEW020CB BKN025



MET'MAP, la Météo Aéronautique d'un coup d'oeil ! - Copyright ORBIFLY Décembre 2007 - Disclaimer

ORBIFLY MET'MAP TEAM :

Programmation & Développement : Alexandra Zaïnal
Sur une idée originale de : Baudouin d'Aumeries
Assistance à la programmation : Marc-Olivier Méhu
Soutien technique & logistique : Manuel Goepfert

Contact : metmap@orbifly.com




SOURCES & CREDITS :

   NOAA